Accueil
METAR-TAF:

METAR-TAF

Aéroports :

Cerklje ob Krki, Slovénie

latitude: 45-53-59N, longitude: 15-30-55E, altitude: 157 m

Observation

Le bulletin a été fait il y a 36 minutes, à 02:00 UTC
Vent 2 kt de ouest/nord-ouest
Température 3°C
Humidité 93%
Pression 1027 hPa
Visibilité: 0800 m
brume

METAR: LJCE 270200Z AUTO 29002KT 0800 R09/1400N BR SCT007/// 03/02 Q1027

Heure: 04:36 (02:36 UTC)

Prévision

Le bulletin a été fait il y a 36 minutes, à 02:00 UTC
Prévision valable du 27 à 03 UTC au 27 à 12 UTC
Vent 5 kt de ouest
Visibilité 10 km ou plus
pas de nuages en-dessous de 1500 mètres et pas de cumulonimbus.
Probabilité 30% :
Temporairement
du 27 à 03 UTC au 27 à 07 UTC
Visibilité: 2500 m
bancs de brouillard, brume

TAF: LJCE 270200Z 2703/2712 26005KT CAVOK PROB30 TEMPO 2703/2707 2500 BCFG BR

Observations et prévisions météorologiques de plus de 4000 aéroports (messages METAR et TAF).

Les stations disponibles sont représentées par des disques jaunes et rouges sur la carte.

Passer la souris dessus pour voir le nom de la station.

Cliquer dessus pour voir les observations et prévisions météorologiques.

Pour changer de carte: cliquez sur les boutons verts avec une croix noire pour zoomer, sur le bouton vert avec un tiret pour effectuer un zoom arrière, ou sur les flèches vertes pour les cartes adjacentes.


METAR-TAF: